Chesterfield, Missouri
Current Conditions -  °F | °C
As of 9:54 PM on Friday 24 Oct 2014 (Local Time) from KSUS Reporting Station
Clear Clear  
Wind Chill: 19°   Ceiling: Unl
Heat Index: 19°   Visibility: 10mi
Dew Point: 13°   Wind: 10mph
Humidity: 68%   Direction: 210°SSW
Pressure: 29.98"   Gusts: NA
Location:  38.65°N, 90.55°W
Report Text: KSUS 250254Z 21009KT 10SM CLR 19/13 A2998 RMK AO2 SLP149 T01940133 56003
Loading
Personal Weather Stations






























Interactive Weather Map
Tropical Storm Tracking
New forecast layout! Learn more

10-Day Weather Forecast

Advertisements
Track Severe Weather on mobile